Time;durP1;ratioP1;P1;durP2;ratioP2;P2;SDS_P1;SDS_P2;PMS_P1;PMS_P2;Temp;Humidity;BMP_temperature;BMP_pressure;BME280_temperature;BME280_humidity;BME280_pressure;Samples;Min_cycle;Max_cycle;Signal;HPM_P1;HPM_P2
2023/09/17 00:02:09;;;;;;;27.73;24.47;;;;;;;;;;2611084;54;21590;-81
2023/09/17 00:07:39;;;;;;;30.30;25.30;;;;;;;;;;2611429;54;20960;-81
2023/09/17 00:13:09;;;;;;;28.80;25.90;;;;;;;;;;2611400;54;20527;-79
2023/09/17 00:18:39;;;;;;;29.53;25.03;;;;;;;;;;2612063;39;20791;-79
2023/09/17 00:24:08;;;;;;;25.90;23.40;;;;;;;;;;2612421;54;20415;-80
2023/09/17 00:29:38;;;;;;;25.80;23.00;;;;;;;;;;2612247;39;20714;-81
2023/09/17 00:41:15;;;;;;;25.10;22.17;;;;;;;;;;2610566;54;20391;-79
2023/09/17 00:46:45;;;;;;;24.63;22.10;;;;;;;;;;2610349;54;21150;-79
2023/09/17 00:52:16;;;;;;;25.37;22.77;;;;;;;;;;2611047;54;20386;-81
2023/09/17 00:57:47;;;;;;;27.83;23.87;;;;;;;;;;2610896;54;20423;-81
2023/09/17 01:03:17;;;;;;;24.50;22.00;;;;;;;;;;2611399;54;20382;-79
2023/09/17 01:08:47;;;;;;;23.07;20.67;;;;;;;;;;2611046;54;20391;-80
2023/09/17 01:14:17;;;;;;;23.30;20.83;;;;;;;;;;2611312;39;20774;-80
2023/09/17 01:19:46;;;;;;;25.07;21.93;;;;;;;;;;2611038;54;20394;-79
2023/09/17 01:25:35;;;;;;;26.13;21.07;;;;;;;;;;2614315;54;23015;-82
2023/09/17 01:31:05;;;;;;;24.23;21.13;;;;;;;;;;2613715;54;20402;-83
2023/09/17 01:40:15;;;;;;;25.10;21.80;;;;;;;;;;2611909;54;20410;-81
2023/09/17 01:45:45;;;;;;;23.13;20.73;;;;;;;;;;2612138;39;20780;-79
2023/09/17 01:51:15;;;;;;;24.27;21.90;;;;;;;;;;2612385;54;20383;-80
2023/09/17 01:56:45;;;;;;;20.80;18.83;;;;;;;;;;2612152;54;20828;-81
2023/09/17 02:02:15;;;;;;;20.77;18.83;;;;;;;;;;2613023;54;20404;-79
2023/09/17 02:07:45;;;;;;;19.27;17.47;;;;;;;;;;2613487;54;20418;-76
2023/09/17 02:13:15;;;;;;;20.23;18.33;;;;;;;;;;2609731;54;20395;-76
2023/09/17 02:18:45;;;;;;;19.53;17.63;;;;;;;;;;2610549;54;20379;-76
2023/09/17 02:24:15;;;;;;;20.90;18.47;;;;;;;;;;2611360;54;20386;-75
2023/09/17 02:29:44;;;;;;;23.23;20.27;;;;;;;;;;2612894;54;20430;-75
2023/09/17 02:35:14;;;;;;;22.27;19.90;;;;;;;;;;2611987;54;20440;-76
2023/09/17 02:40:44;;;;;;;21.80;19.70;;;;;;;;;;2613151;54;20391;-75
2023/09/17 02:46:13;;;;;;;20.60;18.50;;;;;;;;;;2610131;54;20502;-75
2023/09/17 02:51:43;;;;;;;21.07;19.03;;;;;;;;;;2610646;54;20395;-75
2023/09/17 02:57:13;;;;;;;23.73;21.33;;;;;;;;;;2610701;46;20440;-77
2023/09/17 02:59:58;;;;;;;22.00;19.70;;;;;;;;;;2613548;54;20427;-75
2023/09/17 03:02:24;;;;;;;23.53;21.20;;;;;;;;;;2611896;54;20435;-75
2023/09/17 03:07:54;;;;;;;24.10;21.70;;;;;;;;;;2612144;54;20402;-76
2023/09/17 03:13:24;;;;;;;23.27;20.77;;;;;;;;;;2612758;54;20415;-82
2023/09/17 03:18:53;;;;;;;22.83;20.57;;;;;;;;;;2613067;54;20499;-82
2023/09/17 03:24:23;;;;;;;20.00;18.00;;;;;;;;;;2612383;54;20394;-79
2023/09/17 03:29:53;;;;;;;23.83;19.20;;;;;;;;;;2612369;54;20367;-81
2023/09/17 03:35:22;;;;;;;22.63;20.60;;;;;;;;;;2612980;54;20394;-78
2023/09/17 03:40:52;;;;;;;27.17;21.30;;;;;;;;;;2612388;54;20483;-80
2023/09/17 03:46:22;;;;;;;23.93;21.37;;;;;;;;;;2611421;54;20402;-80
2023/09/17 03:51:52;;;;;;;23.70;21.27;;;;;;;;;;2612160;54;20355;-80
2023/09/17 03:57:23;;;;;;;24.47;22.17;;;;;;;;;;2613439;54;20479;-81
2023/09/17 04:02:54;;;;;;;24.87;22.37;;;;;;;;;;2612062;54;20961;-80
2023/09/17 04:08:24;;;;;;;25.20;22.50;;;;;;;;;;2612290;54;20387;-78
2023/09/17 04:13:54;;;;;;;24.80;22.27;;;;;;;;;;2614101;54;20419;-80
2023/09/17 04:19:24;;;;;;;25.37;22.87;;;;;;;;;;2614019;54;20390;-75
2023/09/17 04:24:54;;;;;;;27.53;24.07;;;;;;;;;;2612234;54;20383;-75
2023/09/17 04:30:23;;;;;;;27.53;24.90;;;;;;;;;;2612039;54;21150;-75
2023/09/17 04:35:58;;;;;;;28.07;25.30;;;;;;;;;;2611774;54;20444;-76
2023/09/17 04:41:28;;;;;;;27.13;24.27;;;;;;;;;;2612573;54;20454;-77
2023/09/17 04:46:58;;;;;;;31.87;24.80;;;;;;;;;;2612092;54;20406;-77
2023/09/17 04:52:27;;;;;;;27.87;25.00;;;;;;;;;;2612306;54;20929;-78
2023/09/17 04:57:57;;;;;;;32.70;27.53;;;;;;;;;;2612546;54;20437;-77
2023/09/17 05:03:27;;;;;;;33.97;30.03;;;;;;;;;;2611118;54;20379;-75
2023/09/17 05:08:56;;;;;;;31.97;28.47;;;;;;;;;;2612097;54;20528;-75
2023/09/17 05:14:28;;;;;;;34.00;28.80;;;;;;;;;;2611078;54;20427;-75
2023/09/17 05:19:58;;;;;;;30.53;27.40;;;;;;;;;;2611223;54;20905;-76
2023/09/17 05:25:28;;;;;;;30.73;27.43;;;;;;;;;;2612954;54;20392;-73
2023/09/17 05:30:58;;;;;;;35.30;29.60;;;;;;;;;;2611795;54;20391;-75
2023/09/17 05:36:28;;;;;;;32.70;29.30;;;;;;;;;;2611733;54;20466;-75
2023/09/17 05:45:39;;;;;;;37.10;31.20;;;;;;;;;;2609830;54;20519;-76
2023/09/17 05:51:09;;;;;;;36.90;30.20;;;;;;;;;;2609950;47;21522;-73
2023/09/17 05:56:39;;;;;;;34.20;30.60;;;;;;;;;;2609169;54;20387;-74
2023/09/17 06:02:09;;;;;;;34.33;30.63;;;;;;;;;;2609532;54;20402;-74
2023/09/17 06:07:38;;;;;;;35.67;29.73;;;;;;;;;;2610067;54;20452;-74
2023/09/17 06:13:08;;;;;;;36.50;30.70;;;;;;;;;;2610887;54;20378;-73
2023/09/17 06:18:38;;;;;;;35.47;31.47;;;;;;;;;;2610168;54;20378;-74
2023/09/17 06:24:08;;;;;;;38.23;33.33;;;;;;;;;;2611134;54;20415;-74
2023/09/17 06:29:38;;;;;;;35.33;31.43;;;;;;;;;;2609086;54;20413;-74
2023/09/17 06:35:08;;;;;;;36.73;32.97;;;;;;;;;;2612220;54;20467;-74
2023/09/17 06:40:37;;;;;;;38.20;33.53;;;;;;;;;;2613346;54;20443;-79
2023/09/17 06:46:07;;;;;;;41.87;35.30;;;;;;;;;;2614421;54;20430;-78
2023/09/17 06:51:37;;;;;;;36.70;32.90;;;;;;;;;;2612327;54;20403;-77
2023/09/17 06:57:08;;;;;;;37.20;33.20;;;;;;;;;;2615182;54;20944;-77
2023/09/17 07:02:37;;;;;;;36.23;32.63;;;;;;;;;;2614673;54;20382;-77
2023/09/17 07:08:07;;;;;;;39.90;35.57;;;;;;;;;;2614657;54;20418;-77
2023/09/17 07:13:38;;;;;;;36.60;32.83;;;;;;;;;;2614877;54;20460;-78
2023/09/17 07:19:08;;;;;;;30.63;27.77;;;;;;;;;;2614793;54;20391;-77
2023/09/17 07:24:38;;;;;;;28.53;26.03;;;;;;;;;;2613846;54;20400;-76
2023/09/17 07:30:07;;;;;;;25.23;22.63;;;;;;;;;;2614843;54;20423;-76
2023/09/17 07:35:39;;;;;;;28.63;23.60;;;;;;;;;;2614641;54;20969;-76
2023/09/17 07:41:08;;;;;;;20.83;19.13;;;;;;;;;;2614581;54;20386;-78
2023/09/17 07:52:45;;;;;;;17.20;15.50;;;;;;;;;;2614369;54;20403;-75
2023/09/17 07:58:15;;;;;;;15.50;14.10;;;;;;;;;;2613607;54;20520;-73
2023/09/17 08:03:45;;;;;;;13.37;12.13;;;;;;;;;;2613094;46;20398;-73
2023/09/17 08:09:14;;;;;;;12.20;11.30;;;;;;;;;;2612032;54;20531;-74
2023/09/17 08:14:47;;;;;;;9.13;8.33;;;;;;;;;;2612689;54;20383;-76
2023/09/17 08:20:17;;;;;;;8.00;7.40;;;;;;;;;;2612053;54;20386;-73
2023/09/17 08:25:47;;;;;;;8.10;7.40;;;;;;;;;;2612762;54;20402;-74
2023/09/17 08:31:16;;;;;;;13.50;8.63;;;;;;;;;;2614748;54;20470;-73
2023/09/17 08:36:46;;;;;;;10.73;7.67;;;;;;;;;;2611914;54;20378;-73
2023/09/17 08:42:16;;;;;;;7.87;7.30;;;;;;;;;;2614363;54;21187;-73
2023/09/17 08:51:24;;;;;;;12.03;8.53;;;;;;;;;;2615032;54;20459;-74
2023/09/17 08:56:55;;;;;;;8.20;7.57;;;;;;;;;;2615481;54;20462;-74
2023/09/17 09:02:31;;;;;;;12.70;7.37;;;;;;;;;;2615752;39;20803;-75
2023/09/17 09:08:00;;;;;;;8.53;7.77;;;;;;;;;;2615244;54;20402;-74
2023/09/17 09:13:30;;;;;;;8.43;7.83;;;;;;;;;;2615250;54;20985;-73
2023/09/17 09:19:00;;;;;;;8.07;7.57;;;;;;;;;;2614722;54;20522;-73
2023/09/17 09:30:28;;;;;;;8.03;7.43;;;;;;;;;;2613256;54;20395;-78
2023/09/17 09:36:00;;;;;;;7.83;7.23;;;;;;;;;;2611412;54;20414;-78
2023/09/17 09:41:32;;;;;;;8.43;7.83;;;;;;;;;;2610973;54;20415;-75
2023/09/17 09:52:51;;;;;;;9.30;8.40;;;;;;;;;;2611639;54;20443;-76
2023/09/17 09:58:21;;;;;;;7.90;7.37;;;;;;;;;;2613080;39;20804;-76
2023/09/17 10:01:06;;;;;;;7.50;7.00;;;;;;;;;;2612490;54;20415;-77
2023/09/17 10:03:33;;;;;;;7.90;7.30;;;;;;;;;;2613435;54;20412;-78
2023/09/17 10:09:03;;;;;;;8.67;8.17;;;;;;;;;;2612423;54;20487;-77
2023/09/17 10:14:36;;;;;;;8.83;8.23;;;;;;;;;;2611184;54;20437;-77
2023/09/17 10:20:06;;;;;;;8.73;8.23;;;;;;;;;;2613940;54;20419;-75
2023/09/17 10:25:37;;;;;;;9.97;9.17;;;;;;;;;;2611224;54;20387;-76
2023/09/17 10:31:08;;;;;;;8.40;7.90;;;;;;;;;;2611861;54;20419;-76
2023/09/17 10:36:38;;;;;;;9.10;8.40;;;;;;;;;;2611284;54;20389;-77
2023/09/17 10:42:09;;;;;;;9.27;8.37;;;;;;;;;;2609944;54;20399;-77
2023/09/17 10:53:45;;;;;;;9.27;8.70;;;;;;;;;;2611520;54;20439;-76
2023/09/17 10:59:17;;;;;;;10.37;9.17;;;;;;;;;;2614457;54;20390;-76
2023/09/17 11:04:48;;;;;;;9.57;8.97;;;;;;;;;;2611618;54;20407;-76
2023/09/17 11:10:18;;;;;;;9.13;8.53;;;;;;;;;;2609761;54;20362;-76
2023/09/17 11:15:50;;;;;;;10.10;9.30;;;;;;;;;;2611888;54;21052;-76
2023/09/17 11:21:27;;;;;;;10.03;9.23;;;;;;;;;;2614001;54;20418;-75
2023/09/17 11:26:57;;;;;;;11.50;10.53;;;;;;;;;;2618988;54;20487;-77
2023/09/17 11:32:28;;;;;;;9.13;8.63;;;;;;;;;;2619046;54;21807;-78
2023/09/17 11:37:58;;;;;;;10.33;9.73;;;;;;;;;;2619430;54;20965;-77
2023/09/17 11:43:28;;;;;;;10.53;9.83;;;;;;;;;;2617573;54;20550;-76
2023/09/17 11:48:57;;;;;;;10.03;9.43;;;;;;;;;;2618578;54;20423;-78
2023/09/17 11:54:38;;;;;;;9.97;9.47;;;;;;;;;;2617036;54;20417;-77
2023/09/17 12:00:12;;;;;;;10.40;9.47;;;;;;;;;;2616976;54;20411;-75
2023/09/17 12:05:41;;;;;;;9.60;9.10;;;;;;;;;;2616649;54;20508;-77
2023/09/17 12:11:21;;;;;;;10.33;9.83;;;;;;;;;;2617085;54;20402;-78
2023/09/17 12:26:00;;;;;;;11.63;10.70;;;;;;;;;;2617366;54;20422;-78
2023/09/17 12:31:29;;;;;;;12.70;11.90;;;;;;;;;;2614066;54;20390;-77
2023/09/17 12:36:58;;;;;;;13.07;11.97;;;;;;;;;;2612208;54;20443;-77
2023/09/17 12:42:28;;;;;;;9.43;8.70;;;;;;;;;;2611900;54;20406;-76
2023/09/17 12:47:58;;;;;;;11.47;10.60;;;;;;;;;;2613947;54;20415;-77
2023/09/17 12:53:28;;;;;;;11.03;10.37;;;;;;;;;;2610465;54;20415;-77
2023/09/17 12:58:58;;;;;;;11.03;10.23;;;;;;;;;;2612113;54;20940;-78
2023/09/17 13:04:33;;;;;;;10.57;9.87;;;;;;;;;;2610822;54;20382;-78
2023/09/17 13:10:03;;;;;;;11.30;10.70;;;;;;;;;;2614821;54;20510;-77
2023/09/17 13:15:33;;;;;;;10.83;10.20;;;;;;;;;;2615277;54;20383;-78
2023/09/17 13:21:02;;;;;;;10.00;9.30;;;;;;;;;;2615144;54;20422;-78
2023/09/17 13:26:32;;;;;;;10.47;9.87;;;;;;;;;;2614244;54;20925;-78
2023/09/17 13:32:02;;;;;;;11.07;10.37;;;;;;;;;;2616058;54;20374;-79
2023/09/17 13:37:36;;;;;;;11.27;10.57;;;;;;;;;;2615754;54;20387;-77
2023/09/17 13:43:05;;;;;;;11.40;10.40;;;;;;;;;;2614199;46;20411;-77
2023/09/17 13:48:35;;;;;;;10.90;10.40;;;;;;;;;;2615196;54;20483;-76
2023/09/17 13:54:05;;;;;;;11.03;10.50;;;;;;;;;;2615129;54;20479;-77
2023/09/17 13:59:35;;;;;;;10.83;10.17;;;;;;;;;;2615204;54;20507;-77
2023/09/17 14:05:05;;;;;;;11.10;10.50;;;;;;;;;;2613153;54;20547;-77
2023/09/17 14:10:35;;;;;;;10.83;10.13;;;;;;;;;;2614554;54;20511;-77
2023/09/17 14:16:05;;;;;;;10.90;10.30;;;;;;;;;;2615502;31;20846;-76
2023/09/17 14:25:15;;;;;;;10.90;10.20;;;;;;;;;;2613556;54;20418;-78
2023/09/17 14:30:45;;;;;;;11.23;10.63;;;;;;;;;;2614750;54;21158;-78
2023/09/17 14:36:15;;;;;;;11.83;10.90;;;;;;;;;;2615137;54;20410;-78
2023/09/17 14:41:45;;;;;;;10.53;9.93;;;;;;;;;;2613266;54;20414;-77
2023/09/17 14:47:14;;;;;;;12.07;11.27;;;;;;;;;;2614894;54;20383;-77
2023/09/17 14:52:44;;;;;;;11.90;11.10;;;;;;;;;;2614860;54;20391;-77
2023/09/17 14:58:16;;;;;;;11.40;10.80;;;;;;;;;;2614190;54;20361;-77
2023/09/17 15:03:46;;;;;;;11.40;10.80;;;;;;;;;;2615060;54;20515;-76
2023/09/17 15:09:16;;;;;;;10.00;9.40;;;;;;;;;;2615888;54;20390;-77
2023/09/17 15:14:46;;;;;;;10.03;9.33;;;;;;;;;;2616429;54;20458;-78
2023/09/17 15:20:16;;;;;;;10.30;9.50;;;;;;;;;;2614881;54;20382;-77
2023/09/17 15:25:46;;;;;;;10.50;9.90;;;;;;;;;;2614491;54;20391;-77
2023/09/17 15:31:19;;;;;;;11.93;11.23;;;;;;;;;;2614878;54;20386;-78
2023/09/17 15:36:49;;;;;;;12.23;11.37;;;;;;;;;;2614318;54;20451;-77
2023/09/17 15:42:19;;;;;;;9.77;9.13;;;;;;;;;;2614698;54;20411;-77
2023/09/17 15:47:49;;;;;;;11.17;10.50;;;;;;;;;;2615338;54;20419;-77
2023/09/17 15:53:18;;;;;;;14.00;12.67;;;;;;;;;;2614589;54;20407;-78
2023/09/17 15:58:48;;;;;;;11.10;10.40;;;;;;;;;;2615254;39;20820;-76
2023/09/17 16:04:18;;;;;;;11.37;10.60;;;;;;;;;;2615049;54;20422;-76
2023/09/17 16:09:48;;;;;;;10.40;9.90;;;;;;;;;;2615096;54;20518;-77
2023/09/17 16:15:18;;;;;;;11.13;10.43;;;;;;;;;;2615621;54;20406;-77
2023/09/17 16:20:47;;;;;;;10.57;10.00;;;;;;;;;;2616316;54;20383;-76
2023/09/17 16:26:17;;;;;;;11.40;10.50;;;;;;;;;;2616241;54;20385;-76
2023/09/17 16:31:47;;;;;;;10.77;10.07;;;;;;;;;;2616166;54;20387;-77
2023/09/17 16:37:18;;;;;;;10.07;9.37;;;;;;;;;;2615478;54;20941;-77
2023/09/17 16:42:47;;;;;;;11.77;10.97;;;;;;;;;;2615895;54;20395;-78
2023/09/17 16:48:17;;;;;;;11.87;11.07;;;;;;;;;;2615467;54;20499;-77
2023/09/17 16:53:47;;;;;;;11.93;11.00;;;;;;;;;;2616138;54;20374;-78
2023/09/17 16:59:17;;;;;;;12.53;11.77;;;;;;;;;;2615616;54;20379;-78
2023/09/17 17:04:47;;;;;;;13.30;12.17;;;;;;;;;;2615810;54;20395;-81
2023/09/17 17:10:17;;;;;;;11.97;11.17;;;;;;;;;;2615613;54;20379;-78
2023/09/17 17:15:47;;;;;;;12.97;12.07;;;;;;;;;;2614958;54;20381;-80
2023/09/17 17:27:24;;;;;;;11.53;10.43;;;;;;;;;;2615072;54;20495;-78
2023/09/17 17:32:54;;;;;;;10.27;9.57;;;;;;;;;;2616322;54;20387;-78
2023/09/17 17:38:24;;;;;;;11.27;10.20;;;;;;;;;;2614593;54;20391;-78
2023/09/17 17:43:54;;;;;;;13.30;12.07;;;;;;;;;;2614890;54;20403;-78
2023/09/17 17:49:24;;;;;;;12.63;11.67;;;;;;;;;;2612725;54;20395;-79
2023/09/17 17:54:53;;;;;;;12.73;11.73;;;;;;;;;;2612728;54;20398;-78
2023/09/17 18:00:23;;;;;;;19.33;17.73;;;;;;;;;;2615980;54;20466;-79
2023/09/17 18:05:54;;;;;;;20.53;18.80;;;;;;;;;;2616310;54;20379;-78
2023/09/17 18:11:23;;;;;;;16.57;15.13;;;;;;;;;;2614622;54;20383;-80
2023/09/17 18:16:53;;;;;;;15.83;14.20;;;;;;;;;;2615847;54;20953;-80
2023/09/17 18:26:03;;;;;;;14.87;13.57;;;;;;;;;;2615089;54;20466;-81
2023/09/17 18:31:33;;;;;;;14.17;12.80;;;;;;;;;;2613558;54;20520;-80
2023/09/17 18:37:03;;;;;;;15.03;13.17;;;;;;;;;;2611081;54;20386;-81
2023/09/17 18:42:33;;;;;;;15.00;13.70;;;;;;;;;;2610592;54;20415;-81
2023/09/17 18:48:03;;;;;;;13.87;12.57;;;;;;;;;;2611690;54;20394;-81
2023/09/17 18:53:32;;;;;;;13.53;12.23;;;;;;;;;;2610867;39;20782;-80
2023/09/17 18:59:03;;;;;;;13.17;11.87;;;;;;;;;;2610050;54;20430;-81
2023/09/17 19:04:34;;;;;;;13.23;11.90;;;;;;;;;;2610877;54;20414;-81
2023/09/17 19:10:04;;;;;;;14.07;12.50;;;;;;;;;;2612783;54;20383;-82
2023/09/17 19:15:34;;;;;;;13.87;12.67;;;;;;;;;;2615649;54;20948;-82
2023/09/17 19:21:07;;;;;;;13.77;12.37;;;;;;;;;;2615739;54;20395;-81
2023/09/17 19:26:36;;;;;;;12.70;11.60;;;;;;;;;;2614720;54;20494;-82
2023/09/17 19:32:06;;;;;;;13.83;12.40;;;;;;;;;;2613839;54;20428;-80
2023/09/17 19:37:36;;;;;;;15.43;10.90;;;;;;;;;;2614755;54;20418;-79
2023/09/17 19:43:05;;;;;;;13.13;11.60;;;;;;;;;;2616315;54;20426;-79
2023/09/17 19:48:35;;;;;;;11.30;10.23;;;;;;;;;;2615132;54;20956;-79
2023/09/17 19:54:07;;;;;;;10.70;9.60;;;;;;;;;;2614815;54;20426;-78
2023/09/17 19:59:36;;;;;;;11.80;10.80;;;;;;;;;;2615206;54;20499;-78
2023/09/17 20:05:06;;;;;;;11.33;10.30;;;;;;;;;;2615314;54;20379;-80
2023/09/17 20:10:36;;;;;;;10.00;9.10;;;;;;;;;;2616253;31;20913;-79
2023/09/17 20:16:06;;;;;;;9.17;8.30;;;;;;;;;;2615557;54;20426;-79
2023/09/17 20:21:36;;;;;;;8.53;7.83;;;;;;;;;;2615030;54;20387;-79
2023/09/17 20:27:06;;;;;;;9.67;8.60;;;;;;;;;;2616109;54;20933;-80
2023/09/17 20:32:36;;;;;;;9.37;8.60;;;;;;;;;;2616443;54;20932;-79
2023/09/17 20:38:06;;;;;;;9.57;8.77;;;;;;;;;;2615781;54;20395;-77
2023/09/17 20:43:36;;;;;;;14.70;7.60;;;;;;;;;;2616367;39;20882;-81
2023/09/17 20:49:05;;;;;;;9.67;7.97;;;;;;;;;;2616545;39;20684;-78
2023/09/17 20:54:35;;;;;;;8.13;7.43;;;;;;;;;;2611127;54;20422;-78
2023/09/17 21:00:07;;;;;;;10.23;7.70;;;;;;;;;;2613036;54;20382;-78
2023/09/17 21:02:52;;;;;;;9.17;7.50;;;;;;;;;;2613444;54;20428;-79
2023/09/17 21:05:18;;;;;;;8.03;7.33;;;;;;;;;;2613719;54;20431;-79
2023/09/17 21:10:48;;;;;;;8.73;7.93;;;;;;;;;;2614899;54;20379;-78
2023/09/17 21:16:18;;;;;;;9.53;8.73;;;;;;;;;;2616181;54;20511;-79
2023/09/17 21:27:55;;;;;;;10.57;8.90;;;;;;;;;;2613846;54;20442;-78
2023/09/17 21:33:24;;;;;;;11.03;8.50;;;;;;;;;;2613251;54;20435;-78
2023/09/17 21:38:54;;;;;;;10.77;9.70;;;;;;;;;;2613284;54;20461;-78
2023/09/17 21:44:24;;;;;;;9.83;8.83;;;;;;;;;;2612903;54;20391;-78
2023/09/17 21:49:59;;;;;;;10.43;9.00;;;;;;;;;;2613293;54;20391;-78
2023/09/17 21:55:28;;;;;;;9.57;8.77;;;;;;;;;;2612653;46;20422;-78
2023/09/17 22:00:58;;;;;;;10.60;9.50;;;;;;;;;;2612421;54;20414;-79
2023/09/17 22:06:28;;;;;;;13.37;10.60;;;;;;;;;;2612140;54;20424;-77
2023/09/17 22:11:59;;;;;;;10.63;9.73;;;;;;;;;;2615142;54;20503;-76
2023/09/17 22:17:28;;;;;;;9.93;9.10;;;;;;;;;;2614927;54;20395;-78
2023/09/17 22:26:35;;;;;;;9.90;9.00;;;;;;;;;;2613391;54;20423;-81
2023/09/17 22:32:05;;;;;;;12.87;10.07;;;;;;;;;;2614950;54;20398;-79
2023/09/17 22:37:35;;;;;;;10.10;9.20;;;;;;;;;;2613717;54;20892;-78
2023/09/17 22:43:05;;;;;;;10.00;9.10;;;;;;;;;;2613601;54;20790;-76
2023/09/17 22:48:36;;;;;;;11.43;10.40;;;;;;;;;;2612405;54;20415;-76
2023/09/17 22:54:09;;;;;;;9.73;8.83;;;;;;;;;;2612451;54;20379;-78
2023/09/17 22:59:38;;;;;;;10.70;9.67;;;;;;;;;;2612318;54;20511;-78
2023/09/17 23:05:08;;;;;;;11.63;9.20;;;;;;;;;;2615173;39;20430;-79
2023/09/17 23:10:37;;;;;;;11.77;10.60;;;;;;;;;;2612209;54;20402;-78
2023/09/17 23:16:07;;;;;;;14.13;12.63;;;;;;;;;;2612181;54;20913;-79
2023/09/17 23:21:37;;;;;;;11.70;10.60;;;;;;;;;;2611656;54;20386;-79
2023/09/17 23:27:09;;;;;;;14.43;13.10;;;;;;;;;;2612456;54;20519;-80
2023/09/17 23:32:40;;;;;;;16.17;14.47;;;;;;;;;;2611608;54;20430;-79
2023/09/17 23:38:10;;;;;;;23.97;21.70;;;;;;;;;;2612402;39;20820;-78
2023/09/17 23:43:39;;;;;;;24.50;21.40;;;;;;;;;;2611636;54;20435;-78
2023/09/17 23:49:09;;;;;;;22.47;20.27;;;;;;;;;;2612531;54;20415;-79
2023/09/17 23:54:39;;;;;;;19.60;17.50;;;;;;;;;;2612884;39;21073;-78
